sensor_id;sensor_type;location;lat;lon;timestamp;pressure;altitude;pressure_sealevel;temperature;humidity
82293;BME280;71892;14.836;105.234;2024-03-08T00:00:12;99442.22;;;28.04;nan
82293;BME280;71892;14.836;105.234;2024-03-08T00:02:40;99454.72;;;28.08;nan
82293;BME280;71892;14.836;105.234;2024-03-08T00:05:08;99455.97;;;28.19;nan
82293;BME280;71892;14.836;105.234;2024-03-08T00:07:36;99453.81;;;28.24;nan
82293;BME280;71892;14.836;105.234;2024-03-08T00:10:08;99469.94;;;28.28;nan
82293;BME280;71892;14.836;105.234;2024-03-08T00:12:40;99478.66;;;28.35;nan
82293;BME280;71892;14.836;105.234;2024-03-08T00:15:19;99471.03;;;28.40;nan
82293;BME280;71892;14.836;105.234;2024-03-08T00:17:46;99474.06;;;28.49;nan
82293;BME280;71892;14.836;105.234;2024-03-08T00:20:12;99481.78;;;28.57;nan
82293;BME280;71892;14.836;105.234;2024-03-08T00:22:39;99485.69;;;28.67;nan
82293;BME280;71892;14.836;105.234;2024-03-08T00:25:07;99495.47;;;28.71;nan
82293;BME280;71892;14.836;105.234;2024-03-08T00:27:40;99499.09;;;28.86;nan
82293;BME280;71892;14.836;105.234;2024-03-08T00:30:08;99508.97;;;28.88;nan
82293;BME280;71892;14.836;105.234;2024-03-08T00:32:34;99500.19;;;28.83;nan
82293;BME280;71892;14.836;105.234;2024-03-08T00:35:02;99516.09;;;28.77;nan
82293;BME280;71892;14.836;105.234;2024-03-08T00:37:28;99519.81;;;28.76;nan
82293;BME280;71892;14.836;105.234;2024-03-08T00:39:55;99524.22;;;28.78;nan
82293;BME280;71892;14.836;105.234;2024-03-08T00:42:21;99520.22;;;28.84;nan
82293;BME280;71892;14.836;105.234;2024-03-08T00:44:48;99532.06;;;28.84;nan
82293;BME280;71892;14.836;105.234;2024-03-08T00:47:17;99537.31;;;28.87;nan
82293;BME280;71892;14.836;105.234;2024-03-08T00:49:43;99539.09;;;28.88;nan
82293;BME280;71892;14.836;105.234;2024-03-08T00:52:10;99538.41;;;28.85;nan
82293;BME280;71892;14.836;105.234;2024-03-08T00:54:37;99537.03;;;28.92;nan
82293;BME280;71892;14.836;105.234;2024-03-08T00:57:04;99545.34;;;29.05;nan
82293;BME280;71892;14.836;105.234;2024-03-08T00:59:30;99556.16;;;29.20;nan
82293;BME280;71892;14.836;105.234;2024-03-08T01:02:02;99544.59;;;29.44;nan
82293;BME280;71892;14.836;105.234;2024-03-08T01:04:28;99558.91;;;29.75;nan
82293;BME280;71892;14.836;105.234;2024-03-08T01:06:58;99557.28;;;30.00;nan
82293;BME280;71892;14.836;105.234;2024-03-08T01:09:25;99565.91;;;30.20;nan
82293;BME280;71892;14.836;105.234;2024-03-08T01:11:53;99546.84;;;30.44;nan
82293;BME280;71892;14.836;105.234;2024-03-08T01:14:21;99569.63;;;30.72;nan
82293;BME280;71892;14.836;105.234;2024-03-08T01:16:55;99572.13;;;30.75;nan
82293;BME280;71892;14.836;105.234;2024-03-08T01:19:22;99575.34;;;30.69;nan
82293;BME280;71892;14.836;105.234;2024-03-08T01:21:49;99582.69;;;30.68;nan
82293;BME280;71892;14.836;105.234;2024-03-08T01:24:17;99573.25;;;30.85;nan
82293;BME280;71892;14.836;105.234;2024-03-08T01:26:43;99580.72;;;30.95;nan
82293;BME280;71892;14.836;105.234;2024-03-08T01:29:10;99581.81;;;30.68;nan
82293;BME280;71892;14.836;105.234;2024-03-08T01:31:37;99587.81;;;30.47;nan
82293;BME280;71892;14.836;105.234;2024-03-08T01:34:03;99590.47;;;30.22;nan
82293;BME280;71892;14.836;105.234;2024-03-08T01:36:30;99596.84;;;30.22;nan
82293;BME280;71892;14.836;105.234;2024-03-08T01:38:57;99605.72;;;30.26;nan
82293;BME280;71892;14.836;105.234;2024-03-08T01:41:26;99610.38;;;30.38;nan
82293;BME280;71892;14.836;105.234;2024-03-08T01:43:55;99596.72;;;30.51;nan
82293;BME280;71892;14.836;105.234;2024-03-08T01:46:22;99605.41;;;30.70;nan
82293;BME280;71892;14.836;105.234;2024-03-08T01:48:48;99605.34;;;31.10;nan
82293;BME280;71892;14.836;105.234;2024-03-08T01:51:17;99603.56;;;31.59;nan
82293;BME280;71892;14.836;105.234;2024-03-08T01:53:46;99609.44;;;31.78;nan
82293;BME280;71892;14.836;105.234;2024-03-08T01:58:41;99609.72;;;31.86;nan
82293;BME280;71892;14.836;105.234;2024-03-08T02:01:13;99620.88;;;31.72;nan
82293;BME280;71892;14.836;105.234;2024-03-08T02:03:43;99628.03;;;31.75;nan
82293;BME280;71892;14.836;105.234;2024-03-08T02:06:13;99616.25;;;31.73;nan
82293;BME280;71892;14.836;105.234;2024-03-08T02:08:43;99629.25;;;31.71;nan
82293;BME280;71892;14.836;105.234;2024-03-08T02:11:11;99623.88;;;31.57;nan
82293;BME280;71892;14.836;105.234;2024-03-08T02:13:38;99624.88;;;31.56;nan
82293;BME280;71892;14.836;105.234;2024-03-08T02:16:05;99639.84;;;31.52;nan
82293;BME280;71892;14.836;105.234;2024-03-08T02:18:33;99629.94;;;31.49;nan
82293;BME280;71892;14.836;105.234;2024-03-08T02:21:01;99628.94;;;31.50;nan
82293;BME280;71892;14.836;105.234;2024-03-08T02:23:28;99626.63;;;31.44;nan
82293;BME280;71892;14.836;105.234;2024-03-08T02:28:23;99638.75;;;31.41;nan
82293;BME280;71892;14.836;105.234;2024-03-08T02:30:51;99634.69;;;31.34;nan
82293;BME280;71892;14.836;105.234;2024-03-08T02:33:20;99638.06;;;31.63;nan
82293;BME280;71892;14.836;105.234;2024-03-08T02:35:48;99635.16;;;31.90;nan
82293;BME280;71892;14.836;105.234;2024-03-08T02:38:17;99640.00;;;32.23;nan
82293;BME280;71892;14.836;105.234;2024-03-08T02:40:48;99632.69;;;32.46;nan
82293;BME280;71892;14.836;105.234;2024-03-08T02:43:16;99632.13;;;32.88;nan
82293;BME280;71892;14.836;105.234;2024-03-08T02:45:46;99632.59;;;33.39;nan
82293;BME280;71892;14.836;105.234;2024-03-08T02:48:14;99634.22;;;33.42;nan
82293;BME280;71892;14.836;105.234;2024-03-08T02:50:40;99634.84;;;33.45;nan
82293;BME280;71892;14.836;105.234;2024-03-08T02:53:08;99634.72;;;33.58;nan
82293;BME280;71892;14.836;105.234;2024-03-08T02:55:35;99641.44;;;34.10;nan
82293;BME280;71892;14.836;105.234;2024-03-08T02:58:03;99644.97;;;34.12;nan
82293;BME280;71892;14.836;105.234;2024-03-08T03:00:30;99640.50;;;33.77;nan
82293;BME280;71892;14.836;105.234;2024-03-08T03:02:57;99647.63;;;33.46;nan
82293;BME280;71892;14.836;105.234;2024-03-08T03:05:24;99642.47;;;33.42;nan
82293;BME280;71892;14.836;105.234;2024-03-08T03:07:51;99641.63;;;33.63;nan
82293;BME280;71892;14.836;105.234;2024-03-08T03:10:18;99629.69;;;33.96;nan
82293;BME280;71892;14.836;105.234;2024-03-08T03:12:49;99632.34;;;33.87;nan
82293;BME280;71892;14.836;105.234;2024-03-08T03:15:16;99638.47;;;33.57;nan
82293;BME280;71892;14.836;105.234;2024-03-08T03:17:50;99637.47;;;33.47;nan
82293;BME280;71892;14.836;105.234;2024-03-08T03:20:17;99639.97;;;33.28;nan
82293;BME280;71892;14.836;105.234;2024-03-08T03:22:59;99627.97;;;33.29;nan
82293;BME280;71892;14.836;105.234;2024-03-08T03:25:29;99611.91;;;33.34;nan
82293;BME280;71892;14.836;105.234;2024-03-08T03:28:00;99612.44;;;33.39;nan
82293;BME280;71892;14.836;105.234;2024-03-08T03:30:26;99622.56;;;33.38;nan
82293;BME280;71892;14.836;105.234;2024-03-08T03:32:56;99618.94;;;33.82;nan
82293;BME280;71892;14.836;105.234;2024-03-08T03:35:29;99618.78;;;34.38;nan
82293;BME280;71892;14.836;105.234;2024-03-08T03:37:55;99625.69;;;34.64;nan
82293;BME280;71892;14.836;105.234;2024-03-08T03:40:34;99609.13;;;35.06;nan
82293;BME280;71892;14.836;105.234;2024-03-08T03:43:02;99627.97;;;35.33;nan
82293;BME280;71892;14.836;105.234;2024-03-08T03:45:32;99622.38;;;35.53;nan
82293;BME280;71892;14.836;105.234;2024-03-08T03:48:05;99613.59;;;35.39;nan
82293;BME280;71892;14.836;105.234;2024-03-08T03:50:35;99605.44;;;35.67;nan
82293;BME280;71892;14.836;105.234;2024-03-08T03:53:02;99608.22;;;35.77;nan
82293;BME280;71892;14.836;105.234;2024-03-08T03:55:30;99594.66;;;35.74;nan
82293;BME280;71892;14.836;105.234;2024-03-08T03:57:56;99591.38;;;35.99;nan
82293;BME280;71892;14.836;105.234;2024-03-08T04:00:24;99576.72;;;36.28;nan
82293;BME280;71892;14.836;105.234;2024-03-08T04:02:52;99576.84;;;36.16;nan
82293;BME280;71892;14.836;105.234;2024-03-08T04:05:20;99579.91;;;36.33;nan
82293;BME280;71892;14.836;105.234;2024-03-08T04:07:47;99568.69;;;36.53;nan
82293;BME280;71892;14.836;105.234;2024-03-08T04:10:13;99573.94;;;36.66;nan
82293;BME280;71892;14.836;105.234;2024-03-08T04:12:40;99560.97;;;36.76;nan
82293;BME280;71892;14.836;105.234;2024-03-08T04:15:07;99559.66;;;36.71;nan
82293;BME280;71892;14.836;105.234;2024-03-08T04:17:34;99557.16;;;36.58;nan
82293;BME280;71892;14.836;105.234;2024-03-08T04:20:04;99537.06;;;36.66;nan
82293;BME280;71892;14.836;105.234;2024-03-08T04:22:38;99539.69;;;36.48;nan
82293;BME280;71892;14.836;105.234;2024-03-08T04:25:06;99537.94;;;36.47;nan
82293;BME280;71892;14.836;105.234;2024-03-08T04:27:35;99539.22;;;36.81;nan
82293;BME280;71892;14.836;105.234;2024-03-08T04:30:02;99532.28;;;37.05;nan
82293;BME280;71892;14.836;105.234;2024-03-08T04:32:29;99521.72;;;37.27;nan
82293;BME280;71892;14.836;105.234;2024-03-08T04:34:58;99525.03;;;36.84;nan
82293;BME280;71892;14.836;105.234;2024-03-08T04:37:24;99519.00;;;37.18;nan
82293;BME280;71892;14.836;105.234;2024-03-08T04:39:51;99517.06;;;37.18;nan
82293;BME280;71892;14.836;105.234;2024-03-08T04:42:20;99499.03;;;37.41;nan
82293;BME280;71892;14.836;105.234;2024-03-08T04:44:48;99497.72;;;37.36;nan
82293;BME280;71892;14.836;105.234;2024-03-08T04:47:14;99498.78;;;37.53;nan
82293;BME280;71892;14.836;105.234;2024-03-08T04:49:42;99490.47;;;37.53;nan
82293;BME280;71892;14.836;105.234;2024-03-08T04:52:08;99489.19;;;37.57;nan
82293;BME280;71892;14.836;105.234;2024-03-08T04:54:35;99479.09;;;37.56;nan
82293;BME280;71892;14.836;105.234;2024-03-08T04:57:01;99480.63;;;37.68;nan
82293;BME280;71892;14.836;105.234;2024-03-08T04:59:28;99482.97;;;37.63;nan
82293;BME280;71892;14.836;105.234;2024-03-08T05:01:54;99480.38;;;37.61;nan
82293;BME280;71892;14.836;105.234;2024-03-08T05:04:24;99473.41;;;37.75;nan
82293;BME280;71892;14.836;105.234;2024-03-08T05:06:51;99467.31;;;37.89;nan
82293;BME280;71892;14.836;105.234;2024-03-08T05:09:18;99455.25;;;37.80;nan
82293;BME280;71892;14.836;105.234;2024-03-08T05:11:45;99423.72;;;37.99;nan
82293;BME280;71892;14.836;105.234;2024-03-08T05:14:13;99454.19;;;38.09;nan
82293;BME280;71892;14.836;105.234;2024-03-08T05:16:44;99449.97;;;38.05;nan
82293;BME280;71892;14.836;105.234;2024-03-08T05:19:17;99428.41;;;37.99;nan
82293;BME280;71892;14.836;105.234;2024-03-08T05:21:44;99425.47;;;38.00;nan
82293;BME280;71892;14.836;105.234;2024-03-08T05:24:11;99430.25;;;37.63;nan
82293;BME280;71892;14.836;105.234;2024-03-08T05:26:39;99419.63;;;37.58;nan
82293;BME280;71892;14.836;105.234;2024-03-08T05:29:05;99414.00;;;37.68;nan
82293;BME280;71892;14.836;105.234;2024-03-08T05:31:52;99410.03;;;38.06;nan
82293;BME280;71892;14.836;105.234;2024-03-08T05:34:19;99412.66;;;37.72;nan
82293;BME280;71892;14.836;105.234;2024-03-08T05:36:45;99401.06;;;37.76;nan
82293;BME280;71892;14.836;105.234;2024-03-08T05:39:16;99405.91;;;37.92;nan
82293;BME280;71892;14.836;105.234;2024-03-08T05:41:44;99395.75;;;37.83;nan
82293;BME280;71892;14.836;105.234;2024-03-08T05:44:12;99382.34;;;37.96;nan
82293;BME280;71892;14.836;105.234;2024-03-08T05:46:39;99384.81;;;37.81;nan
82293;BME280;71892;14.836;105.234;2024-03-08T05:49:07;99377.22;;;37.83;nan
82293;BME280;71892;14.836;105.234;2024-03-08T05:51:37;99345.56;;;37.76;nan
82293;BME280;71892;14.836;105.234;2024-03-08T05:54:08;99368.78;;;37.93;nan
82293;BME280;71892;14.836;105.234;2024-03-08T05:56:39;99363.44;;;38.17;nan
82293;BME280;71892;14.836;105.234;2024-03-08T05:59:10;99341.97;;;38.19;nan
82293;BME280;71892;14.836;105.234;2024-03-08T06:01:37;99340.13;;;38.36;nan
82293;BME280;71892;14.836;105.234;2024-03-08T06:04:04;99335.63;;;38.09;nan
82293;BME280;71892;14.836;105.234;2024-03-08T06:06:30;99342.91;;;38.10;nan
82293;BME280;71892;14.836;105.234;2024-03-08T06:08:57;99343.47;;;38.14;nan
82293;BME280;71892;14.836;105.234;2024-03-08T06:11:25;99311.09;;;38.31;nan
82293;BME280;71892;14.836;105.234;2024-03-08T06:13:59;99311.09;;;38.31;nan
82293;BME280;71892;14.836;105.234;2024-03-08T06:16:28;99301.88;;;38.30;nan
82293;BME280;71892;14.836;105.234;2024-03-08T06:18:57;99295.75;;;38.18;nan
82293;BME280;71892;14.836;105.234;2024-03-08T06:21:24;99298.09;;;36.81;nan
82293;BME280;71892;14.836;105.234;2024-03-08T06:23:54;99296.81;;;37.38;nan
82293;BME280;71892;14.836;105.234;2024-03-08T06:26:21;99278.38;;;37.91;nan
82293;BME280;71892;14.836;105.234;2024-03-08T06:28:48;99274.47;;;38.01;nan
82293;BME280;71892;14.836;105.234;2024-03-08T06:31:14;99273.63;;;37.83;nan
82293;BME280;71892;14.836;105.234;2024-03-08T06:33:44;99271.41;;;38.12;nan
82293;BME280;71892;14.836;105.234;2024-03-08T06:36:11;99261.69;;;38.08;nan
82293;BME280;71892;14.836;105.234;2024-03-08T06:38:38;99260.91;;;37.98;nan
82293;BME280;71892;14.836;105.234;2024-03-08T06:41:11;99253.34;;;38.08;nan
82293;BME280;71892;14.836;105.234;2024-03-08T06:43:47;99245.13;;;37.99;nan
82293;BME280;71892;14.836;105.234;2024-03-08T06:46:23;99235.38;;;37.69;nan
82293;BME280;71892;14.836;105.234;2024-03-08T06:48:50;99225.94;;;37.88;nan
82293;BME280;71892;14.836;105.234;2024-03-08T06:51:17;99228.13;;;38.02;nan
82293;BME280;71892;14.836;105.234;2024-03-08T06:53:44;99216.75;;;37.87;nan
82293;BME280;71892;14.836;105.234;2024-03-08T06:56:13;99217.03;;;37.76;nan
82293;BME280;71892;14.836;105.234;2024-03-08T06:58:42;99211.88;;;37.81;nan
82293;BME280;71892;14.836;105.234;2024-03-08T07:01:09;99198.56;;;37.93;nan
82293;BME280;71892;14.836;105.234;2024-03-08T07:03:41;99137.22;;;38.04;nan
82293;BME280;71892;14.836;105.234;2024-03-08T07:06:10;99196.72;;;38.01;nan
82293;BME280;71892;14.836;105.234;2024-03-08T07:08:38;99131.94;;;37.93;nan
82293;BME280;71892;14.836;105.234;2024-03-08T07:11:05;99177.22;;;37.93;nan
82293;BME280;71892;14.836;105.234;2024-03-08T07:13:31;99177.59;;;37.98;nan
82293;BME280;71892;14.836;105.234;2024-03-08T07:15:58;99174.97;;;37.97;nan
82293;BME280;71892;14.836;105.234;2024-03-08T07:18:26;99169.19;;;37.82;nan
82293;BME280;71892;14.836;105.234;2024-03-08T07:20:55;99165.22;;;37.59;nan
82293;BME280;71892;14.836;105.234;2024-03-08T07:23:22;99162.50;;;37.67;nan
82293;BME280;71892;14.836;105.234;2024-03-08T07:26:21;99151.66;;;37.81;nan
82293;BME280;71892;14.836;105.234;2024-03-08T07:28:52;99149.59;;;37.83;nan
82293;BME280;71892;14.836;105.234;2024-03-08T07:31:21;99155.75;;;37.69;nan
82293;BME280;71892;14.836;105.234;2024-03-08T07:33:57;99161.09;;;37.63;nan
82293;BME280;71892;14.836;105.234;2024-03-08T07:36:24;99138.38;;;37.67;nan
82293;BME280;71892;14.836;105.234;2024-03-08T07:38:51;99123.50;;;37.76;nan
82293;BME280;71892;14.836;105.234;2024-03-08T07:41:18;99126.78;;;37.72;nan
82293;BME280;71892;14.836;105.234;2024-03-08T07:43:44;99135.84;;;37.74;nan
82293;BME280;71892;14.836;105.234;2024-03-08T07:46:11;99124.38;;;37.77;nan
82293;BME280;71892;14.836;105.234;2024-03-08T07:48:38;99125.81;;;37.81;nan
82293;BME280;71892;14.836;105.234;2024-03-08T07:51:05;99126.88;;;37.88;nan
82293;BME280;71892;14.836;105.234;2024-03-08T07:53:35;99129.63;;;37.80;nan
82293;BME280;71892;14.836;105.234;2024-03-08T07:56:02;99131.53;;;37.79;nan
82293;BME280;71892;14.836;105.234;2024-03-08T07:58:28;99115.38;;;37.75;nan
82293;BME280;71892;14.836;105.234;2024-03-08T08:00:55;99116.19;;;37.67;nan
82293;BME280;71892;14.836;105.234;2024-03-08T08:03:21;99118.09;;;37.67;nan
82293;BME280;71892;14.836;105.234;2024-03-08T08:05:48;99123.13;;;37.37;nan
82293;BME280;71892;14.836;105.234;2024-03-08T08:08:15;99125.16;;;37.35;nan
82293;BME280;71892;14.836;105.234;2024-03-08T08:10:41;99116.81;;;37.27;nan
82293;BME280;71892;14.836;105.234;2024-03-08T08:13:08;99124.13;;;37.36;nan
82293;BME280;71892;14.836;105.234;2024-03-08T08:15:34;99117.97;;;37.25;nan
82293;BME280;71892;14.836;105.234;2024-03-08T08:18:01;99114.44;;;36.97;nan
82293;BME280;71892;14.836;105.234;2024-03-08T08:20:31;99111.97;;;36.94;nan
82293;BME280;71892;14.836;105.234;2024-03-08T08:22:57;99114.16;;;36.82;nan
82293;BME280;71892;14.836;105.234;2024-03-08T08:25:24;99104.63;;;36.85;nan
82293;BME280;71892;14.836;105.234;2024-03-08T08:27:52;99110.03;;;36.86;nan
82293;BME280;71892;14.836;105.234;2024-03-08T08:30:20;99103.06;;;36.82;nan
82293;BME280;71892;14.836;105.234;2024-03-08T08:32:46;99108.84;;;36.89;nan
82293;BME280;71892;14.836;105.234;2024-03-08T08:35:14;99100.28;;;36.82;nan
82293;BME280;71892;14.836;105.234;2024-03-08T08:37:41;99109.19;;;36.68;nan
82293;BME280;71892;14.836;105.234;2024-03-08T08:40:08;99107.09;;;36.70;nan
82293;BME280;71892;14.836;105.234;2024-03-08T08:42:42;99099.50;;;36.54;nan
82293;BME280;71892;14.836;105.234;2024-03-08T08:45:12;99110.72;;;36.35;nan
82293;BME280;71892;14.836;105.234;2024-03-08T08:47:38;99109.19;;;36.23;nan
82293;BME280;71892;14.836;105.234;2024-03-08T08:50:08;99096.88;;;36.08;nan
82293;BME280;71892;14.836;105.234;2024-03-08T08:52:37;99102.66;;;35.97;nan
82293;BME280;71892;14.836;105.234;2024-03-08T08:55:09;99072.13;;;35.79;nan
82293;BME280;71892;14.836;105.234;2024-03-08T08:57:43;99092.91;;;35.65;nan
82293;BME280;71892;14.836;105.234;2024-03-08T09:00:10;99089.09;;;35.66;nan
82293;BME280;71892;14.836;105.234;2024-03-08T09:02:41;99087.06;;;35.59;nan
82293;BME280;71892;14.836;105.234;2024-03-08T09:05:08;99075.91;;;35.51;nan
82293;BME280;71892;14.836;105.234;2024-03-08T09:07:35;99090.00;;;35.57;nan
82293;BME280;71892;14.836;105.234;2024-03-08T09:10:02;99087.03;;;35.68;nan
82293;BME280;71892;14.836;105.234;2024-03-08T09:12:28;99073.09;;;35.60;nan
82293;BME280;71892;14.836;105.234;2024-03-08T09:15:00;99085.16;;;35.59;nan
82293;BME280;71892;14.836;105.234;2024-03-08T09:17:26;99089.41;;;35.54;nan
82293;BME280;71892;14.836;105.234;2024-03-08T09:20:00;99083.47;;;35.49;nan
82293;BME280;71892;14.836;105.234;2024-03-08T09:22:31;99074.84;;;35.61;nan
82293;BME280;71892;14.836;105.234;2024-03-08T09:27:27;99067.38;;;35.35;nan
82293;BME280;71892;14.836;105.234;2024-03-08T09:29:54;99074.97;;;35.33;nan
82293;BME280;71892;14.836;105.234;2024-03-08T09:32:21;99079.16;;;35.37;nan
82293;BME280;71892;14.836;105.234;2024-03-08T09:34:48;99074.09;;;35.32;nan
82293;BME280;71892;14.836;105.234;2024-03-08T09:37:16;99076.66;;;35.43;nan
82293;BME280;71892;14.836;105.234;2024-03-08T09:39:43;99083.22;;;35.42;nan
82293;BME280;71892;14.836;105.234;2024-03-08T09:42:10;99070.16;;;35.25;nan
82293;BME280;71892;14.836;105.234;2024-03-08T09:44:49;99086.63;;;35.17;nan
82293;BME280;71892;14.836;105.234;2024-03-08T09:47:18;99071.91;;;35.16;nan
82293;BME280;71892;14.836;105.234;2024-03-08T09:49:48;99081.41;;;35.04;nan
82293;BME280;71892;14.836;105.234;2024-03-08T09:52:18;99083.16;;;34.96;nan
82293;BME280;71892;14.836;105.234;2024-03-08T09:54:48;99085.91;;;34.96;nan
82293;BME280;71892;14.836;105.234;2024-03-08T09:57:16;99066.19;;;34.91;nan
82293;BME280;71892;14.836;105.234;2024-03-08T09:59:42;99082.31;;;34.85;nan
82293;BME280;71892;14.836;105.234;2024-03-08T10:02:19;99080.28;;;34.78;nan
82293;BME280;71892;14.836;105.234;2024-03-08T10:04:46;99080.28;;;34.68;nan
82293;BME280;71892;14.836;105.234;2024-03-08T10:07:17;99082.44;;;34.65;nan
82293;BME280;71892;14.836;105.234;2024-03-08T10:09:44;99082.16;;;34.48;nan
82293;BME280;71892;14.836;105.234;2024-03-08T10:12:16;99078.38;;;34.30;nan
82293;BME280;71892;14.836;105.234;2024-03-08T10:14:43;99085.91;;;34.19;nan
82293;BME280;71892;14.836;105.234;2024-03-08T10:17:12;99083.84;;;34.11;nan
82293;BME280;71892;14.836;105.234;2024-03-08T10:19:51;99092.41;;;33.98;nan
82293;BME280;71892;14.836;105.234;2024-03-08T10:22:19;99085.13;;;33.88;nan
82293;BME280;71892;14.836;105.234;2024-03-08T10:24:48;99091.75;;;33.76;nan
82293;BME280;71892;14.836;105.234;2024-03-08T10:27:19;99088.81;;;33.68;nan
82293;BME280;71892;14.836;105.234;2024-03-08T10:29:48;99097.91;;;33.58;nan
82293;BME280;71892;14.836;105.234;2024-03-08T10:32:17;99098.44;;;33.52;nan
82293;BME280;71892;14.836;105.234;2024-03-08T10:34:44;99101.28;;;33.41;nan
82293;BME280;71892;14.836;105.234;2024-03-08T10:37:15;99112.91;;;33.35;nan
82293;BME280;71892;14.836;105.234;2024-03-08T10:40:03;99109.47;;;33.22;nan
82293;BME280;71892;14.836;105.234;2024-03-08T10:42:56;99111.41;;;33.10;nan
82293;BME280;71892;14.836;105.234;2024-03-08T10:45:40;99113.06;;;33.02;nan
82293;BME280;71892;14.836;105.234;2024-03-08T10:51:06;99108.25;;;32.94;nan
82293;BME280;71892;14.836;105.234;2024-03-08T10:53:34;99100.84;;;32.74;nan
82293;BME280;71892;14.836;105.234;2024-03-08T10:56:05;99108.19;;;32.53;nan
82293;BME280;71892;14.836;105.234;2024-03-08T10:58:34;99110.78;;;32.33;nan
82293;BME280;71892;14.836;105.234;2024-03-08T11:01:01;99120.34;;;32.18;nan
82293;BME280;71892;14.836;105.234;2024-03-08T11:06:42;99110.47;;;31.93;nan
82293;BME280;71892;14.836;105.234;2024-03-08T11:09:35;99112.03;;;31.64;nan
82293;BME280;71892;14.836;105.234;2024-03-08T11:14:50;99118.13;;;31.45;nan
82293;BME280;71892;14.836;105.234;2024-03-08T11:20:00;99099.13;;;31.31;nan
82293;BME280;71892;14.836;105.234;2024-03-08T11:22:33;99116.00;;;31.27;nan
82293;BME280;71892;14.836;105.234;2024-03-08T11:25:04;99122.22;;;31.18;nan
82293;BME280;71892;14.836;105.234;2024-03-08T11:27:39;99124.94;;;31.06;nan
82293;BME280;71892;14.836;105.234;2024-03-08T11:30:07;99129.94;;;31.01;nan
82293;BME280;71892;14.836;105.234;2024-03-08T11:32:38;99119.03;;;31.00;nan
82293;BME280;71892;14.836;105.234;2024-03-08T11:35:08;99134.09;;;30.94;nan
82293;BME280;71892;14.836;105.234;2024-03-08T11:37:45;99141.59;;;30.92;nan
82293;BME280;71892;14.836;105.234;2024-03-08T11:40:12;99124.63;;;30.98;nan
82293;BME280;71892;14.836;105.234;2024-03-08T11:42:46;99154.09;;;30.96;nan
82293;BME280;71892;14.836;105.234;2024-03-08T11:45:16;99154.34;;;30.93;nan
82293;BME280;71892;14.836;105.234;2024-03-08T11:47:47;99162.22;;;30.98;nan
82293;BME280;71892;14.836;105.234;2024-03-08T11:50:14;99171.81;;;30.92;nan
82293;BME280;71892;14.836;105.234;2024-03-08T11:52:42;99175.63;;;30.79;nan
82293;BME280;71892;14.836;105.234;2024-03-08T11:55:09;99191.28;;;30.65;nan
82293;BME280;71892;14.836;105.234;2024-03-08T11:57:38;99188.19;;;30.46;nan
82293;BME280;71892;14.836;105.234;2024-03-08T12:00:05;99192.06;;;30.31;nan
82293;BME280;71892;14.836;105.234;2024-03-08T12:02:35;99196.63;;;30.19;nan
82293;BME280;71892;14.836;105.234;2024-03-08T12:05:04;99204.22;;;30.16;nan
82293;BME280;71892;14.836;105.234;2024-03-08T12:07:36;99213.53;;;30.13;nan
82293;BME280;71892;14.836;105.234;2024-03-08T12:10:20;99211.22;;;30.07;nan
82293;BME280;71892;14.836;105.234;2024-03-08T12:12:54;99217.19;;;30.01;nan
82293;BME280;71892;14.836;105.234;2024-03-08T12:15:24;99224.00;;;29.96;nan
82293;BME280;71892;14.836;105.234;2024-03-08T12:17:52;99232.44;;;29.93;nan
82293;BME280;71892;14.836;105.234;2024-03-08T12:20:21;99240.78;;;29.91;nan
82293;BME280;71892;14.836;105.234;2024-03-08T12:22:49;99241.19;;;29.85;nan
82293;BME280;71892;14.836;105.234;2024-03-08T12:25:18;99235.25;;;29.78;nan
82293;BME280;71892;14.836;105.234;2024-03-08T12:27:46;99241.53;;;29.80;nan
82293;BME280;71892;14.836;105.234;2024-03-08T12:30:23;99247.00;;;29.80;nan
82293;BME280;71892;14.836;105.234;2024-03-08T12:32:56;99231.53;;;29.79;nan
82293;BME280;71892;14.836;105.234;2024-03-08T12:35:32;99259.19;;;29.89;nan
82293;BME280;71892;14.836;105.234;2024-03-08T12:37:59;99269.38;;;30.00;nan
82293;BME280;71892;14.836;105.234;2024-03-08T12:40:30;99279.81;;;29.95;nan
82293;BME280;71892;14.836;105.234;2024-03-08T12:43:07;99269.50;;;29.98;nan
82293;BME280;71892;14.836;105.234;2024-03-08T12:45:34;99271.69;;;29.93;nan
82293;BME280;71892;14.836;105.234;2024-03-08T12:50:29;99282.53;;;29.82;nan
82293;BME280;71892;14.836;105.234;2024-03-08T12:52:56;99285.28;;;29.82;nan
82293;BME280;71892;14.836;105.234;2024-03-08T12:55:25;99287.81;;;29.72;nan
82293;BME280;71892;14.836;105.234;2024-03-08T12:57:52;99282.19;;;29.61;nan
82293;BME280;71892;14.836;105.234;2024-03-08T13:00:19;99290.44;;;29.61;nan
82293;BME280;71892;14.836;105.234;2024-03-08T13:02:48;99298.00;;;29.58;nan
82293;BME280;71892;14.836;105.234;2024-03-08T13:05:17;99298.75;;;29.60;nan
82293;BME280;71892;14.836;105.234;2024-03-08T13:07:43;99254.16;;;29.58;nan
82293;BME280;71892;14.836;105.234;2024-03-08T13:10:19;99303.25;;;29.48;nan
82293;BME280;71892;14.836;105.234;2024-03-08T13:12:46;99304.19;;;29.34;nan
82293;BME280;71892;14.836;105.234;2024-03-08T13:15:12;99309.19;;;29.28;nan
82293;BME280;71892;14.836;105.234;2024-03-08T13:17:49;99314.75;;;29.26;nan
82293;BME280;71892;14.836;105.234;2024-03-08T13:20:16;99315.69;;;29.40;nan
82293;BME280;71892;14.836;105.234;2024-03-08T13:22:47;99332.13;;;29.40;nan
82293;BME280;71892;14.836;105.234;2024-03-08T13:25:13;99330.41;;;29.39;nan
82293;BME280;71892;14.836;105.234;2024-03-08T13:27:42;99341.03;;;29.29;nan
82293;BME280;71892;14.836;105.234;2024-03-08T13:30:10;99337.09;;;29.20;nan